Main page
METAR-TAF:

METAR-TAF

Airports :

Nawabshah Airport

Nawabshah, Pakistan

latitude: 26-15N, longitude: 068-22E, elevation: 37 m

Current weather observation

The report was made 1 hour and 3 minutes ago, at 08:00 UTC
Wind 4 kt from the Northeast
Temperature 31°C
Humidity 36%
Pressure 1011 hPa
smoke

METAR: OPNH 180800Z 04504KT 5000M FU NSC 31/14 Q1011 NOSIG

Time: 14:03 (09:03 UTC)

Forecast

The report was made 5 hours and 33 minutes ago, at 03:30 UTC
Forecast valid from 18 at 06 UTC to 18 at 15 UTC
Wind 8 kt from the North
Visibility: 4000 m
Few clouds at a height of 4000 ft
Scattered clouds at a height of 10000 ft
smoke

TAF: OPNH 180330Z 1806/1815 36008KT 4000 FU FEW040 SCT100

Weather observations and forecasts of more than 4000 airports (METAR and TAF reports).

The available stations are represented by yellow and red dots on the map.

Hover mouse over dot to see the name of the station.

Then click to see weather observations and forecasts.

To change the map : click on the green buttons with a black cross to zoom in, on the green button with a dash to zoom out, or on the green arrows for adjacent maps.


METAR-TAF: